sensor_id;sensor_type;location;lat;lon;timestamp;pressure;altitude;pressure_sealevel;temperature;humidity
66801;BME280;53703;50.326;19.122;2023-05-22T00:00:47;98909.30;;;18.39;45.59
66801;BME280;53703;50.326;19.122;2023-05-22T00:03:44;98909.59;;;18.37;45.41
66801;BME280;53703;50.326;19.122;2023-05-22T00:06:40;98913.95;;;18.38;45.22
66801;BME280;53703;50.326;19.122;2023-05-22T00:09:35;98914.23;;;18.37;45.11
66801;BME280;53703;50.326;19.122;2023-05-22T00:12:29;98913.70;;;18.35;45.10
66801;BME280;53703;50.326;19.122;2023-05-22T00:15:23;98906.36;;;18.38;45.09
66801;BME280;53703;50.326;19.122;2023-05-22T00:18:17;98902.48;;;18.35;45.13
66801;BME280;53703;50.326;19.122;2023-05-22T00:21:11;98901.83;;;18.37;45.08
66801;BME280;53703;50.326;19.122;2023-05-22T00:24:06;98900.39;;;18.36;44.92
66801;BME280;53703;50.326;19.122;2023-05-22T00:27:00;98900.30;;;18.36;44.93
66801;BME280;53703;50.326;19.122;2023-05-22T00:29:54;98894.13;;;18.32;44.95
66801;BME280;53703;50.326;19.122;2023-05-22T00:32:48;98890.34;;;18.30;44.85
66801;BME280;53703;50.326;19.122;2023-05-22T00:35:43;98891.27;;;18.27;45.07
66801;BME280;53703;50.326;19.122;2023-05-22T00:38:37;98891.52;;;18.28;44.95
66801;BME280;53703;50.326;19.122;2023-05-22T00:41:39;98890.42;;;18.25;44.89
66801;BME280;53703;50.326;19.122;2023-05-22T00:44:34;98888.34;;;18.25;44.71
66801;BME280;53703;50.326;19.122;2023-05-22T00:47:28;98885.80;;;18.24;44.81
66801;BME280;53703;50.326;19.122;2023-05-22T00:50:24;98884.33;;;18.22;44.73
66801;BME280;53703;50.326;19.122;2023-05-22T00:53:20;98886.81;;;18.21;44.86
66801;BME280;53703;50.326;19.122;2023-05-22T00:56:15;98884.37;;;18.21;44.78
66801;BME280;53703;50.326;19.122;2023-05-22T00:59:09;98879.23;;;18.21;44.74
66801;BME280;53703;50.326;19.122;2023-05-22T01:02:04;98875.08;;;18.19;44.76
66801;BME280;53703;50.326;19.122;2023-05-22T01:04:58;98873.81;;;18.16;44.81
66801;BME280;53703;50.326;19.122;2023-05-22T01:07:52;98874.58;;;18.16;44.87
66801;BME280;53703;50.326;19.122;2023-05-22T01:10:46;98871.92;;;18.14;44.80
66801;BME280;53703;50.326;19.122;2023-05-22T01:13:49;98872.03;;;18.15;44.75
66801;BME280;53703;50.326;19.122;2023-05-22T01:16:51;98870.73;;;18.14;44.83
66801;BME280;53703;50.326;19.122;2023-05-22T01:20:07;98873.90;;;18.15;44.73
66801;BME280;53703;50.326;19.122;2023-05-22T01:23:54;98871.73;;;18.10;45.05
66801;BME280;53703;50.326;19.122;2023-05-22T01:27:30;98868.30;;;18.07;45.23
66801;BME280;53703;50.326;19.122;2023-05-22T01:30:49;98869.48;;;18.05;44.80
66801;BME280;53703;50.326;19.122;2023-05-22T01:33:50;98872.48;;;18.03;45.32
66801;BME280;53703;50.326;19.122;2023-05-22T01:36:46;98871.49;;;18.02;45.39
66801;BME280;53703;50.326;19.122;2023-05-22T01:39:42;98868.23;;;18.01;45.35
66801;BME280;53703;50.326;19.122;2023-05-22T01:42:36;98868.91;;;17.98;45.56
66801;BME280;53703;50.326;19.122;2023-05-22T01:45:32;98866.38;;;17.95;45.76
66801;BME280;53703;50.326;19.122;2023-05-22T01:48:27;98869.04;;;17.92;45.93
66801;BME280;53703;50.326;19.122;2023-05-22T01:51:27;98869.50;;;17.89;46.05
66801;BME280;53703;50.326;19.122;2023-05-22T01:54:31;98867.18;;;17.86;46.22
66801;BME280;53703;50.326;19.122;2023-05-22T01:57:52;98867.64;;;17.85;46.30
66801;BME280;53703;50.326;19.122;2023-05-22T02:00:49;98862.41;;;17.82;46.37
66801;BME280;53703;50.326;19.122;2023-05-22T02:03:44;98861.78;;;17.79;46.41
66801;BME280;53703;50.326;19.122;2023-05-22T02:06:40;98859.30;;;17.78;46.52
66801;BME280;53703;50.326;19.122;2023-05-22T02:09:35;98860.79;;;17.76;46.57
66801;BME280;53703;50.326;19.122;2023-05-22T02:12:31;98864.63;;;17.73;46.69
66801;BME280;53703;50.326;19.122;2023-05-22T02:15:26;98862.96;;;17.73;46.70
66801;BME280;53703;50.326;19.122;2023-05-22T02:18:20;98865.69;;;17.74;46.66
66801;BME280;53703;50.326;19.122;2023-05-22T02:21:23;98867.65;;;17.69;46.71
66801;BME280;53703;50.326;19.122;2023-05-22T02:24:18;98869.59;;;17.68;46.85
66801;BME280;53703;50.326;19.122;2023-05-22T02:27:12;98866.12;;;17.66;46.93
66801;BME280;53703;50.326;19.122;2023-05-22T02:30:09;98861.45;;;17.65;47.12
66801;BME280;53703;50.326;19.122;2023-05-22T02:33:03;98861.41;;;17.64;47.12
66801;BME280;53703;50.326;19.122;2023-05-22T02:35:58;98860.79;;;17.60;47.30
66801;BME280;53703;50.326;19.122;2023-05-22T02:38:52;98858.50;;;17.57;47.34
66801;BME280;53703;50.326;19.122;2023-05-22T02:41:47;98861.07;;;17.57;47.39
66801;BME280;53703;50.326;19.122;2023-05-22T02:44:41;98857.64;;;17.52;47.37
66801;BME280;53703;50.326;19.122;2023-05-22T02:47:35;98854.79;;;17.55;47.37
66801;BME280;53703;50.326;19.122;2023-05-22T02:50:29;98853.34;;;17.54;47.36
66801;BME280;53703;50.326;19.122;2023-05-22T02:53:24;98857.44;;;17.54;47.28
66801;BME280;53703;50.326;19.122;2023-05-22T02:56:18;98854.84;;;17.52;47.25
66801;BME280;53703;50.326;19.122;2023-05-22T02:59:13;98857.98;;;17.51;47.46
66801;BME280;53703;50.326;19.122;2023-05-22T03:02:08;98860.58;;;17.51;47.54
66801;BME280;53703;50.326;19.122;2023-05-22T03:05:04;98857.66;;;17.51;47.67
66801;BME280;53703;50.326;19.122;2023-05-22T03:07:59;98857.55;;;17.48;47.72
66801;BME280;53703;50.326;19.122;2023-05-22T03:10:54;98857.40;;;17.48;47.76
66801;BME280;53703;50.326;19.122;2023-05-22T03:13:48;98855.55;;;17.45;47.81
66801;BME280;53703;50.326;19.122;2023-05-22T03:16:42;98855.09;;;17.40;47.95
66801;BME280;53703;50.326;19.122;2023-05-22T03:19:36;98857.23;;;17.36;48.08
66801;BME280;53703;50.326;19.122;2023-05-22T03:22:30;98856.73;;;17.33;47.99
66801;BME280;53703;50.326;19.122;2023-05-22T03:25:24;98857.56;;;17.32;48.18
66801;BME280;53703;50.326;19.122;2023-05-22T03:28:19;98858.55;;;17.34;48.05
66801;BME280;53703;50.326;19.122;2023-05-22T03:31:13;98858.88;;;17.31;48.23
66801;BME280;53703;50.326;19.122;2023-05-22T03:34:08;98855.02;;;17.32;48.40
66801;BME280;53703;50.326;19.122;2023-05-22T03:37:02;98854.50;;;17.30;48.41
66801;BME280;53703;50.326;19.122;2023-05-22T03:39:56;98855.14;;;17.31;48.46
66801;BME280;53703;50.326;19.122;2023-05-22T03:42:50;98856.02;;;17.31;48.50
66801;BME280;53703;50.326;19.122;2023-05-22T03:45:44;98851.48;;;17.31;48.58
66801;BME280;53703;50.326;19.122;2023-05-22T03:48:38;98853.14;;;17.30;48.72
66801;BME280;53703;50.326;19.122;2023-05-22T03:51:32;98854.91;;;17.31;48.92
66801;BME280;53703;50.326;19.122;2023-05-22T03:54:26;98855.83;;;17.30;49.02
66801;BME280;53703;50.326;19.122;2023-05-22T03:57:20;98855.70;;;17.31;49.04
66801;BME280;53703;50.326;19.122;2023-05-22T04:00:17;98862.30;;;17.32;48.93
66801;BME280;53703;50.326;19.122;2023-05-22T04:03:11;98865.05;;;17.32;48.98
66801;BME280;53703;50.326;19.122;2023-05-22T04:06:06;98866.50;;;17.33;49.07
66801;BME280;53703;50.326;19.122;2023-05-22T04:09:00;98863.13;;;17.34;48.96
66801;BME280;53703;50.326;19.122;2023-05-22T04:11:54;98862.02;;;17.35;48.90
66801;BME280;53703;50.326;19.122;2023-05-22T04:14:41;98862.90;;;17.39;48.83
66801;BME280;53703;50.326;19.122;2023-05-22T04:17:40;98859.92;;;17.43;48.46
66801;BME280;53703;50.326;19.122;2023-05-22T04:20:34;98858.72;;;17.43;48.43
66801;BME280;53703;50.326;19.122;2023-05-22T04:23:29;98856.02;;;17.45;48.18
66801;BME280;53703;50.326;19.122;2023-05-22T04:26:23;98859.46;;;17.46;48.16
66801;BME280;53703;50.326;19.122;2023-05-22T04:29:17;98854.80;;;17.46;48.00
66801;BME280;53703;50.326;19.122;2023-05-22T04:32:14;98855.70;;;17.46;47.89
66801;BME280;53703;50.326;19.122;2023-05-22T04:35:10;98853.14;;;17.45;47.64
66801;BME280;53703;50.326;19.122;2023-05-22T04:38:05;98853.70;;;17.48;47.46
66801;BME280;53703;50.326;19.122;2023-05-22T04:40:59;98849.42;;;17.52;47.39
66801;BME280;53703;50.326;19.122;2023-05-22T04:43:54;98847.48;;;17.55;47.28
66801;BME280;53703;50.326;19.122;2023-05-22T04:46:48;98840.58;;;17.66;47.24
66801;BME280;53703;50.326;19.122;2023-05-22T04:49:43;98843.77;;;17.60;46.90
66801;BME280;53703;50.326;19.122;2023-05-22T04:52:37;98840.90;;;17.57;46.76
66801;BME280;53703;50.326;19.122;2023-05-22T04:55:31;98835.49;;;17.76;46.55
66801;BME280;53703;50.326;19.122;2023-05-22T04:58:26;98841.85;;;17.76;46.59
66801;BME280;53703;50.326;19.122;2023-05-22T05:01:21;98844.73;;;17.91;46.14
66801;BME280;53703;50.326;19.122;2023-05-22T05:04:16;98844.88;;;17.86;46.09
66801;BME280;53703;50.326;19.122;2023-05-22T05:07:11;98845.05;;;17.89;46.17
66801;BME280;53703;50.326;19.122;2023-05-22T05:10:06;98839.23;;;17.90;45.83
66801;BME280;53703;50.326;19.122;2023-05-22T05:13:00;98842.26;;;17.84;46.48
66801;BME280;53703;50.326;19.122;2023-05-22T05:15:56;98840.74;;;17.95;46.55
66801;BME280;53703;50.326;19.122;2023-05-22T05:18:50;98845.72;;;18.12;45.94
66801;BME280;53703;50.326;19.122;2023-05-22T05:21:54;98848.35;;;18.25;45.60
66801;BME280;53703;50.326;19.122;2023-05-22T05:24:51;98849.11;;;18.26;44.80
66801;BME280;53703;50.326;19.122;2023-05-22T05:28:06;98850.73;;;18.20;44.88
66801;BME280;53703;50.326;19.122;2023-05-22T05:31:03;98852.39;;;18.06;44.86
66801;BME280;53703;50.326;19.122;2023-05-22T05:33:57;98853.32;;;18.22;44.59
66801;BME280;53703;50.326;19.122;2023-05-22T05:36:52;98856.24;;;18.13;44.41
66801;BME280;53703;50.326;19.122;2023-05-22T05:39:48;98857.06;;;18.21;44.46
66801;BME280;53703;50.326;19.122;2023-05-22T05:42:42;98852.19;;;18.17;44.37
66801;BME280;53703;50.326;19.122;2023-05-22T05:45:36;98848.84;;;18.36;44.29
66801;BME280;53703;50.326;19.122;2023-05-22T05:48:31;98847.76;;;18.34;44.17
66801;BME280;53703;50.326;19.122;2023-05-22T05:54:45;98850.05;;;18.40;44.11
66801;BME280;53703;50.326;19.122;2023-05-22T05:57:39;98846.03;;;18.37;44.10
66801;BME280;53703;50.326;19.122;2023-05-22T06:00:34;98848.05;;;18.47;43.57
66801;BME280;53703;50.326;19.122;2023-05-22T06:03:30;98849.30;;;18.46;43.66
66801;BME280;53703;50.326;19.122;2023-05-22T06:06:26;98842.40;;;18.45;43.97
66801;BME280;53703;50.326;19.122;2023-05-22T06:09:21;98844.68;;;18.50;44.13
66801;BME280;53703;50.326;19.122;2023-05-22T06:12:16;98844.45;;;18.47;44.88
66801;BME280;53703;50.326;19.122;2023-05-22T06:15:10;98840.33;;;18.49;44.82
66801;BME280;53703;50.326;19.122;2023-05-22T06:18:05;98842.09;;;18.51;44.48
66801;BME280;53703;50.326;19.122;2023-05-22T06:20:59;98838.43;;;18.52;44.44
66801;BME280;53703;50.326;19.122;2023-05-22T06:23:53;98843.19;;;18.58;44.49
66801;BME280;53703;50.326;19.122;2023-05-22T06:26:47;98843.67;;;18.58;44.51
66801;BME280;53703;50.326;19.122;2023-05-22T06:29:39;98836.45;;;18.57;44.60
66801;BME280;53703;50.326;19.122;2023-05-22T06:32:33;98836.02;;;18.56;44.39
66801;BME280;53703;50.326;19.122;2023-05-22T06:35:27;98833.86;;;18.55;43.46
66801;BME280;53703;50.326;19.122;2023-05-22T06:38:21;98837.30;;;18.62;44.03
66801;BME280;53703;50.326;19.122;2023-05-22T06:41:15;98837.09;;;18.63;44.37
66801;BME280;53703;50.326;19.122;2023-05-22T06:44:09;98843.11;;;18.61;44.43
66801;BME280;53703;50.326;19.122;2023-05-22T06:47:03;98839.95;;;18.64;43.72
66801;BME280;53703;50.326;19.122;2023-05-22T06:49:57;98839.92;;;18.65;43.69
66801;BME280;53703;50.326;19.122;2023-05-22T06:52:52;98840.80;;;18.66;43.43
66801;BME280;53703;50.326;19.122;2023-05-22T06:55:46;98836.73;;;18.59;43.94
66801;BME280;53703;50.326;19.122;2023-05-22T06:58:40;98840.45;;;18.67;43.28
66801;BME280;53703;50.326;19.122;2023-05-22T07:01:34;98837.74;;;18.69;43.67
66801;BME280;53703;50.326;19.122;2023-05-22T07:04:28;98839.85;;;18.74;43.24
66801;BME280;53703;50.326;19.122;2023-05-22T07:07:23;98834.79;;;18.71;43.39
66801;BME280;53703;50.326;19.122;2023-05-22T07:10:17;98839.00;;;18.74;43.11
66801;BME280;53703;50.326;19.122;2023-05-22T07:13:11;98838.94;;;18.78;42.29
66801;BME280;53703;50.326;19.122;2023-05-22T07:16:06;98833.29;;;18.71;41.88
66801;BME280;53703;50.326;19.122;2023-05-22T07:19:00;98836.50;;;18.78;41.57
66801;BME280;53703;50.326;19.122;2023-05-22T07:21:55;98833.85;;;18.79;41.94
66801;BME280;53703;50.326;19.122;2023-05-22T07:24:50;98835.55;;;18.72;43.03
66801;BME280;53703;50.326;19.122;2023-05-22T07:27:44;98828.96;;;18.74;43.37
66801;BME280;53703;50.326;19.122;2023-05-22T07:30:39;98831.06;;;18.70;43.32
66801;BME280;53703;50.326;19.122;2023-05-22T07:33:33;98831.52;;;18.78;43.18
66801;BME280;53703;50.326;19.122;2023-05-22T07:36:27;98830.54;;;18.82;43.14
66801;BME280;53703;50.326;19.122;2023-05-22T07:39:21;98824.39;;;18.74;43.47
66801;BME280;53703;50.326;19.122;2023-05-22T07:42:16;98825.62;;;18.73;43.33
66801;BME280;53703;50.326;19.122;2023-05-22T07:45:11;98826.30;;;18.75;43.36
66801;BME280;53703;50.326;19.122;2023-05-22T07:48:06;98824.92;;;18.79;41.52
66801;BME280;53703;50.326;19.122;2023-05-22T07:51:00;98828.23;;;18.90;40.43
66801;BME280;53703;50.326;19.122;2023-05-22T07:53:55;98825.24;;;18.82;40.30
66801;BME280;53703;50.326;19.122;2023-05-22T07:56:50;98827.76;;;18.87;39.20
66801;BME280;53703;50.326;19.122;2023-05-22T07:59:44;98826.44;;;18.89;38.99
66801;BME280;53703;50.326;19.122;2023-05-22T08:02:39;98830.16;;;18.94;37.68
66801;BME280;53703;50.326;19.122;2023-05-22T08:05:33;98824.17;;;18.89;38.83
66801;BME280;53703;50.326;19.122;2023-05-22T08:08:27;98820.73;;;18.85;38.80
66801;BME280;53703;50.326;19.122;2023-05-22T08:11:23;98823.75;;;18.80;39.03
66801;BME280;53703;50.326;19.122;2023-05-22T08:14:17;98819.28;;;18.92;38.11
66801;BME280;53703;50.326;19.122;2023-05-22T08:17:12;98820.67;;;18.85;39.37
66801;BME280;53703;50.326;19.122;2023-05-22T08:20:08;98822.30;;;18.84;39.51
66801;BME280;53703;50.326;19.122;2023-05-22T08:23:03;98818.98;;;18.84;38.68
66801;BME280;53703;50.326;19.122;2023-05-22T08:25:57;98814.94;;;18.84;39.55
66801;BME280;53703;50.326;19.122;2023-05-22T08:28:51;98811.08;;;18.81;40.21
66801;BME280;53703;50.326;19.122;2023-05-22T08:31:45;98816.55;;;18.82;39.99
66801;BME280;53703;50.326;19.122;2023-05-22T08:34:39;98811.66;;;18.85;40.20
66801;BME280;53703;50.326;19.122;2023-05-22T08:37:34;98810.95;;;18.85;39.80
66801;BME280;53703;50.326;19.122;2023-05-22T08:40:37;98812.02;;;18.87;39.05
66801;BME280;53703;50.326;19.122;2023-05-22T08:43:37;98815.49;;;18.81;40.30
66801;BME280;53703;50.326;19.122;2023-05-22T08:46:32;98812.64;;;18.75;40.53
66801;BME280;53703;50.326;19.122;2023-05-22T08:49:30;98808.59;;;18.85;39.45
66801;BME280;53703;50.326;19.122;2023-05-22T08:52:31;98805.85;;;18.84;39.95
66801;BME280;53703;50.326;19.122;2023-05-22T08:55:32;98805.92;;;18.86;39.53
66801;BME280;53703;50.326;19.122;2023-05-22T08:58:26;98803.90;;;19.02;38.56
66801;BME280;53703;50.326;19.122;2023-05-22T09:01:20;98802.42;;;18.85;40.06
66801;BME280;53703;50.326;19.122;2023-05-22T09:04:15;98807.06;;;18.93;38.95
66801;BME280;53703;50.326;19.122;2023-05-22T09:07:10;98800.33;;;18.84;39.97
66801;BME280;53703;50.326;19.122;2023-05-22T09:10:06;98807.33;;;18.77;39.91
66801;BME280;53703;50.326;19.122;2023-05-22T09:13:05;98806.27;;;18.87;39.24
66801;BME280;53703;50.326;19.122;2023-05-22T09:16:21;98800.60;;;18.85;39.78
66801;BME280;53703;50.326;19.122;2023-05-22T09:19:22;98797.25;;;18.93;39.19
66801;BME280;53703;50.326;19.122;2023-05-22T09:22:17;98799.14;;;18.98;39.11
66801;BME280;53703;50.326;19.122;2023-05-22T09:25:17;98799.75;;;18.95;39.35
66801;BME280;53703;50.326;19.122;2023-05-22T09:28:13;98801.23;;;18.88;39.94
66801;BME280;53703;50.326;19.122;2023-05-22T09:31:07;98801.40;;;18.94;39.90
66801;BME280;53703;50.326;19.122;2023-05-22T09:34:01;98803.57;;;18.81;40.59
66801;BME280;53703;50.326;19.122;2023-05-22T09:37:03;98798.45;;;19.24;40.18
66801;BME280;53703;50.326;19.122;2023-05-22T09:40:00;98798.68;;;19.39;38.50
66801;BME280;53703;50.326;19.122;2023-05-22T09:42:57;98796.89;;;19.14;39.47
66801;BME280;53703;50.326;19.122;2023-05-22T09:45:56;98798.17;;;19.11;39.65
66801;BME280;53703;50.326;19.122;2023-05-22T09:48:54;98796.45;;;18.98;40.59
66801;BME280;53703;50.326;19.122;2023-05-22T09:51:49;98790.73;;;18.96;39.87
66801;BME280;53703;50.326;19.122;2023-05-22T09:54:50;98792.20;;;18.87;38.92
66801;BME280;53703;50.326;19.122;2023-05-22T09:57:47;98790.98;;;18.89;39.39
66801;BME280;53703;50.326;19.122;2023-05-22T10:00:44;98786.11;;;18.86;39.07
66801;BME280;53703;50.326;19.122;2023-05-22T10:03:39;98784.52;;;18.86;39.31
66801;BME280;53703;50.326;19.122;2023-05-22T10:06:34;98784.78;;;18.90;38.95
66801;BME280;53703;50.326;19.122;2023-05-22T10:09:31;98787.19;;;18.88;39.31
66801;BME280;53703;50.326;19.122;2023-05-22T10:12:28;98782.55;;;18.92;38.97
66801;BME280;53703;50.326;19.122;2023-05-22T10:15:25;98780.19;;;18.96;38.59
66801;BME280;53703;50.326;19.122;2023-05-22T10:18:20;98773.73;;;18.94;39.50
66801;BME280;53703;50.326;19.122;2023-05-22T10:21:15;98777.34;;;18.90;40.03
66801;BME280;53703;50.326;19.122;2023-05-22T10:24:11;98771.85;;;18.94;39.71
66801;BME280;53703;50.326;19.122;2023-05-22T10:27:06;98779.26;;;18.96;39.69
66801;BME280;53703;50.326;19.122;2023-05-22T10:33:14;98771.46;;;19.05;38.72
66801;BME280;53703;50.326;19.122;2023-05-22T10:36:15;98770.50;;;19.05;38.89
66801;BME280;53703;50.326;19.122;2023-05-22T10:39:39;98767.44;;;19.18;38.61
66801;BME280;53703;50.326;19.122;2023-05-22T10:42:37;98766.58;;;19.14;38.56
66801;BME280;53703;50.326;19.122;2023-05-22T10:45:31;98762.44;;;19.14;38.51
66801;BME280;53703;50.326;19.122;2023-05-22T10:48:25;98759.92;;;19.11;38.79
66801;BME280;53703;50.326;19.122;2023-05-22T10:51:21;98765.20;;;19.14;38.48
66801;BME280;53703;50.326;19.122;2023-05-22T10:54:16;98767.27;;;19.17;38.58
66801;BME280;53703;50.326;19.122;2023-05-22T10:57:14;98765.23;;;19.18;38.41
66801;BME280;53703;50.326;19.122;2023-05-22T11:00:16;98769.02;;;19.11;38.73
66801;BME280;53703;50.326;19.122;2023-05-22T11:03:11;98766.83;;;19.09;38.86
66801;BME280;53703;50.326;19.122;2023-05-22T11:06:29;98761.35;;;19.15;38.62
66801;BME280;53703;50.326;19.122;2023-05-22T11:09:29;98756.21;;;19.08;38.93
66801;BME280;53703;50.326;19.122;2023-05-22T11:12:26;98755.45;;;19.09;39.29
66801;BME280;53703;50.326;19.122;2023-05-22T11:15:45;98750.89;;;19.14;39.33
66801;BME280;53703;50.326;19.122;2023-05-22T11:18:40;98750.64;;;19.06;39.48
66801;BME280;53703;50.326;19.122;2023-05-22T11:21:43;98747.98;;;19.08;39.61
66801;BME280;53703;50.326;19.122;2023-05-22T11:24:37;98742.35;;;19.28;39.39
66801;BME280;53703;50.326;19.122;2023-05-22T11:27:33;98741.13;;;19.15;39.89
66801;BME280;53703;50.326;19.122;2023-05-22T11:30:28;98740.05;;;19.12;40.15
66801;BME280;53703;50.326;19.122;2023-05-22T11:33:23;98733.17;;;19.16;39.90
66801;BME280;53703;50.326;19.122;2023-05-22T11:36:18;98729.84;;;19.15;39.85
66801;BME280;53703;50.326;19.122;2023-05-22T11:39:15;98726.73;;;19.36;38.60
66801;BME280;53703;50.326;19.122;2023-05-22T11:42:10;98727.77;;;19.36;38.14
66801;BME280;53703;50.326;19.122;2023-05-22T11:45:06;98730.04;;;19.23;39.10
66801;BME280;53703;50.326;19.122;2023-05-22T11:48:00;98730.61;;;19.12;39.59
66801;BME280;53703;50.326;19.122;2023-05-22T11:50:54;98733.48;;;19.28;39.05
66801;BME280;53703;50.326;19.122;2023-05-22T11:53:49;98732.55;;;19.23;39.50
66801;BME280;53703;50.326;19.122;2023-05-22T11:56:43;98732.52;;;19.28;39.58
66801;BME280;53703;50.326;19.122;2023-05-22T11:59:37;98733.48;;;19.12;40.39
66801;BME280;53703;50.326;19.122;2023-05-22T12:02:32;98731.46;;;19.14;40.59
66801;BME280;53703;50.326;19.122;2023-05-22T12:05:26;98738.80;;;19.07;41.38
66801;BME280;53703;50.326;19.122;2023-05-22T12:08:21;98735.13;;;19.03;41.27
66801;BME280;53703;50.326;19.122;2023-05-22T12:11:15;98741.77;;;19.09;41.38
66801;BME280;53703;50.326;19.122;2023-05-22T12:14:11;98739.90;;;19.07;41.27
66801;BME280;53703;50.326;19.122;2023-05-22T12:17:06;98742.60;;;19.07;41.27
66801;BME280;53703;50.326;19.122;2023-05-22T12:19:59;98733.86;;;19.03;41.74
66801;BME280;53703;50.326;19.122;2023-05-22T12:22:56;98733.60;;;19.11;41.28
66801;BME280;53703;50.326;19.122;2023-05-22T12:25:59;98732.52;;;19.06;41.59
66801;BME280;53703;50.326;19.122;2023-05-22T12:28:55;98724.82;;;19.08;41.42
66801;BME280;53703;50.326;19.122;2023-05-22T12:31:50;98723.33;;;19.08;41.55
66801;BME280;53703;50.326;19.122;2023-05-22T12:34:48;98720.23;;;19.08;41.46
66801;BME280;53703;50.326;19.122;2023-05-22T12:37:48;98711.70;;;19.07;41.30
66801;BME280;53703;50.326;19.122;2023-05-22T12:40:42;98708.77;;;19.07;41.44
66801;BME280;53703;50.326;19.122;2023-05-22T12:43:36;98705.52;;;19.10;41.51
66801;BME280;53703;50.326;19.122;2023-05-22T12:46:31;98699.65;;;19.06;41.57
66801;BME280;53703;50.326;19.122;2023-05-22T12:49:25;98700.07;;;19.07;41.34
66801;BME280;53703;50.326;19.122;2023-05-22T12:52:19;98698.10;;;19.07;41.15
66801;BME280;53703;50.326;19.122;2023-05-22T12:55:14;98699.11;;;19.10;41.21
66801;BME280;53703;50.326;19.122;2023-05-22T12:58:08;98694.12;;;19.09;41.30
66801;BME280;53703;50.326;19.122;2023-05-22T13:01:02;98697.81;;;19.08;41.38
66801;BME280;53703;50.326;19.122;2023-05-22T13:03:56;98695.72;;;19.07;41.36
66801;BME280;53703;50.326;19.122;2023-05-22T13:06:50;98690.66;;;19.04;41.58
66801;BME280;53703;50.326;19.122;2023-05-22T13:09:44;98686.65;;;19.02;41.82
66801;BME280;53703;50.326;19.122;2023-05-22T13:12:38;98682.69;;;19.02;41.75
66801;BME280;53703;50.326;19.122;2023-05-22T13:15:33;98683.29;;;19.03;41.86
66801;BME280;53703;50.326;19.122;2023-05-22T13:18:27;98680.04;;;19.09;41.98
66801;BME280;53703;50.326;19.122;2023-05-22T13:21:22;98675.74;;;19.11;42.07
66801;BME280;53703;50.326;19.122;2023-05-22T13:24:18;98676.72;;;19.08;42.08
66801;BME280;53703;50.326;19.122;2023-05-22T13:27:11;98678.80;;;19.01;42.29
66801;BME280;53703;50.326;19.122;2023-05-22T13:30:07;98676.12;;;19.02;42.46
66801;BME280;53703;50.326;19.122;2023-05-22T13:33:01;98678.29;;;19.03;42.27
66801;BME280;53703;50.326;19.122;2023-05-22T13:35:55;98672.87;;;19.04;42.52
66801;BME280;53703;50.326;19.122;2023-05-22T13:38:49;98668.30;;;19.02;42.54
66801;BME280;53703;50.326;19.122;2023-05-22T13:41:43;98669.86;;;19.13;42.32
66801;BME280;53703;50.326;19.122;2023-05-22T13:44:37;98668.91;;;19.15;42.21
66801;BME280;53703;50.326;19.122;2023-05-22T13:47:31;98675.59;;;19.34;41.65
66801;BME280;53703;50.326;19.122;2023-05-22T13:50:26;98669.21;;;19.38;41.21
66801;BME280;53703;50.326;19.122;2023-05-22T13:53:20;98664.78;;;19.21;41.75
66801;BME280;53703;50.326;19.122;2023-05-22T13:56:14;98659.45;;;19.17;41.85
66801;BME280;53703;50.326;19.122;2023-05-22T13:59:09;98663.75;;;19.44;40.42
66801;BME280;53703;50.326;19.122;2023-05-22T14:02:03;98658.17;;;19.17;41.76
66801;BME280;53703;50.326;19.122;2023-05-22T14:04:57;98656.91;;;19.20;41.28
66801;BME280;53703;50.326;19.122;2023-05-22T14:07:51;98655.09;;;19.26;41.01
66801;BME280;53703;50.326;19.122;2023-05-22T14:10:46;98648.67;;;19.16;41.62
66801;BME280;53703;50.326;19.122;2023-05-22T14:13:40;98649.05;;;19.18;41.76
66801;BME280;53703;50.326;19.122;2023-05-22T14:16:34;98647.73;;;19.16;41.88
66801;BME280;53703;50.326;19.122;2023-05-22T14:19:28;98648.77;;;19.23;41.58
66801;BME280;53703;50.326;19.122;2023-05-22T14:22:22;98645.52;;;19.16;42.02
66801;BME280;53703;50.326;19.122;2023-05-22T14:25:16;98647.42;;;19.19;41.97
66801;BME280;53703;50.326;19.122;2023-05-22T14:28:11;98640.77;;;19.16;41.99
66801;BME280;53703;50.326;19.122;2023-05-22T14:31:05;98635.61;;;19.21;41.80
66801;BME280;53703;50.326;19.122;2023-05-22T14:34:00;98631.66;;;19.21;42.46
66801;BME280;53703;50.326;19.122;2023-05-22T14:36:54;98631.67;;;19.19;42.32
66801;BME280;53703;50.326;19.122;2023-05-22T14:39:49;98634.02;;;19.17;43.16
66801;BME280;53703;50.326;19.122;2023-05-22T14:42:43;98629.42;;;19.20;43.23
66801;BME280;53703;50.326;19.122;2023-05-22T14:45:37;98624.63;;;19.11;43.16
66801;BME280;53703;50.326;19.122;2023-05-22T14:48:32;98623.73;;;19.14;43.79
66801;BME280;53703;50.326;19.122;2023-05-22T14:51:26;98616.86;;;19.04;44.31
66801;BME280;53703;50.326;19.122;2023-05-22T14:54:20;98616.66;;;19.13;43.40
66801;BME280;53703;50.326;19.122;2023-05-22T14:57:15;98623.70;;;19.16;42.95
66801;BME280;53703;50.326;19.122;2023-05-22T15:00:12;98620.73;;;19.14;42.58
66801;BME280;53703;50.326;19.122;2023-05-22T15:03:06;98613.02;;;19.19;42.46
66801;BME280;53703;50.326;19.122;2023-05-22T15:06:00;98615.80;;;19.16;42.09
66801;BME280;53703;50.326;19.122;2023-05-22T15:08:55;98613.20;;;19.17;42.07
66801;BME280;53703;50.326;19.122;2023-05-22T15:11:52;98615.23;;;19.22;41.32
66801;BME280;53703;50.326;19.122;2023-05-22T15:14:47;98616.11;;;19.19;41.54
66801;BME280;53703;50.326;19.122;2023-05-22T15:17:41;98617.09;;;19.17;41.10
66801;BME280;53703;50.326;19.122;2023-05-22T15:20:35;98608.09;;;19.24;40.75
66801;BME280;53703;50.326;19.122;2023-05-22T15:23:29;98607.98;;;19.16;41.32
66801;BME280;53703;50.326;19.122;2023-05-22T15:26:23;98610.63;;;19.15;41.30